createdAt,value
2023-04-16T00:03:29.416Z,16.60
2023-04-16T00:08:35.744Z,15.63
2023-04-16T00:13:39.190Z,14.97
2023-04-16T00:18:43.408Z,14.33
2023-04-16T00:23:48.212Z,16.27
2023-04-16T00:28:51.633Z,18.40
2023-04-16T00:33:55.261Z,13.60
2023-04-16T00:39:00.132Z,14.53
2023-04-16T00:44:04.096Z,14.13
2023-04-16T00:49:07.944Z,16.23
2023-04-16T00:54:14.153Z,15.83
2023-04-16T00:59:18.084Z,16.50
2023-04-16T01:04:22.036Z,15.33
2023-04-16T01:09:27.098Z,18.17
2023-04-16T01:14:32.011Z,18.47
2023-04-16T01:19:36.411Z,16.33
2023-04-16T01:24:41.946Z,14.73
2023-04-16T01:29:47.309Z,21.33
2023-04-16T01:34:57.461Z,16.27
2023-04-16T01:40:02.795Z,16.00
2023-04-16T01:45:08.828Z,12.17
2023-04-16T01:50:12.933Z,9.87
2023-04-16T01:55:17.887Z,13.87
2023-04-16T02:00:21.816Z,15.07
2023-04-16T02:05:25.215Z,11.73
2023-04-16T02:10:30.784Z,13.73
2023-04-16T02:15:35.384Z,8.13
2023-04-16T02:20:41.891Z,12.60
2023-04-16T02:25:47.984Z,10.90
2023-04-16T02:30:52.881Z,12.53
2023-04-16T02:35:57.902Z,13.40
2023-04-16T02:41:02.903Z,14.27
2023-04-16T02:46:06.465Z,10.30
2023-04-16T02:51:10.388Z,8.80
2023-04-16T02:56:15.227Z,9.93
2023-04-16T03:01:19.190Z,12.10
2023-04-16T03:06:22.681Z,12.23
2023-04-16T03:11:27.505Z,9.97
2023-04-16T03:16:31.582Z,14.30
2023-04-16T03:21:35.339Z,9.53
2023-04-16T03:26:40.484Z,8.37
2023-04-16T03:31:44.162Z,12.43
2023-04-16T03:36:47.605Z,10.70
2023-04-16T03:41:52.617Z,15.37
2023-04-16T03:46:56.268Z,15.23
2023-04-16T03:52:00.280Z,14.40
2023-04-16T03:57:05.477Z,12.90
2023-04-16T04:02:09.958Z,24.00
2023-04-16T04:07:13.767Z,18.83
2023-04-16T04:12:19.067Z,20.90
2023-04-16T04:17:23.687Z,24.53
2023-04-16T04:22:27.931Z,26.27
2023-04-16T04:27:33.204Z,32.10
2023-04-16T04:32:36.968Z,30.87
2023-04-16T04:37:40.890Z,29.40
2023-04-16T04:42:52.565Z,23.87
2023-04-16T04:47:59.362Z,20.93
2023-04-16T04:53:04.723Z,18.07
2023-04-16T04:58:10.562Z,19.17
2023-04-16T05:03:22.008Z,20.77
2023-04-16T05:08:25.833Z,25.90
2023-04-16T05:13:30.966Z,17.93
2023-04-16T05:18:34.627Z,19.57
2023-04-16T05:23:38.432Z,18.17
2023-04-16T05:28:43.291Z,16.43
2023-04-16T05:33:46.758Z,16.77
2023-04-16T05:38:50.171Z,25.70
2023-04-16T05:43:55.390Z,21.30
2023-04-16T05:48:58.802Z,29.50
2023-04-16T05:54:02.244Z,15.33
2023-04-16T05:59:07.407Z,17.57
2023-04-16T06:04:11.361Z,23.33
2023-04-16T06:09:14.893Z,18.40
2023-04-16T06:14:19.823Z,17.63
2023-04-16T06:19:23.267Z,16.57
2023-04-16T06:24:26.710Z,16.97
2023-04-16T06:29:40.581Z,18.17
2023-04-16T06:34:44.653Z,18.50
2023-04-16T06:39:48.190Z,18.40
2023-04-16T06:44:53.171Z,17.10
2023-04-16T06:49:56.858Z,12.63
2023-04-16T06:55:00.700Z,12.77
2023-04-16T07:00:06.346Z,19.80
2023-04-16T07:05:10.207Z,16.17
2023-04-16T07:10:14.113Z,16.33
2023-04-16T07:15:19.343Z,18.17
2023-04-16T07:20:23.189Z,15.97
2023-04-16T07:25:26.979Z,23.40
2023-04-16T07:30:34.340Z,12.07
2023-04-16T07:35:37.786Z,17.70
2023-04-16T07:40:41.233Z,18.87
2023-04-16T07:45:46.391Z,17.30
2023-04-16T07:50:50.329Z,18.07
2023-04-16T07:55:53.837Z,17.07
2023-04-16T08:00:59.698Z,12.90
2023-04-16T08:06:03.636Z,10.93
2023-04-16T08:11:07.096Z,13.77
2023-04-16T08:16:12.302Z,12.45
2023-04-16T08:21:15.871Z,18.47
2023-04-16T08:26:19.608Z,9.77
2023-04-16T08:31:24.596Z,9.32
2023-04-16T08:36:28.324Z,13.02
2023-04-16T08:41:33.558Z,9.10
2023-04-16T08:46:39.514Z,10.25
2023-04-16T08:51:47.092Z,12.00
2023-04-16T08:56:52.435Z,14.52
2023-04-16T09:02:00.123Z,12.25
2023-04-16T09:07:06.222Z,8.93
2023-04-16T09:12:10.681Z,10.82
2023-04-16T09:17:16.967Z,11.35
2023-04-16T09:22:20.891Z,10.07
2023-04-16T09:27:26.075Z,9.80
2023-04-16T09:32:31.236Z,14.20
2023-04-16T09:37:34.978Z,9.48
2023-04-16T09:42:38.605Z,10.07
2023-04-16T09:47:45.318Z,5.63
2023-04-16T09:52:51.312Z,7.72
2023-04-16T09:58:01.237Z,9.27
2023-04-16T10:03:07.322Z,7.03
2023-04-16T10:08:14.946Z,9.13
2023-04-16T10:13:19.284Z,6.63
2023-04-16T10:18:24.504Z,5.88
2023-04-16T10:23:28.361Z,5.20
2023-04-16T10:28:32.267Z,3.80
2023-04-16T10:33:40.625Z,5.57
2023-04-16T10:38:48.452Z,5.63
2023-04-16T10:43:52.502Z,3.30
2023-04-16T10:49:01.837Z,5.82
2023-04-16T10:54:20.635Z,5.05
2023-04-16T10:59:25.167Z,5.70
2023-04-16T11:04:35.525Z,5.63
2023-04-16T11:10:05.531Z,5.78
2023-04-16T11:15:12.112Z,5.30
2023-04-16T11:20:20.914Z,6.03
2023-04-16T11:25:27.407Z,6.13
2023-04-16T11:30:33.362Z,7.32
2023-04-16T11:35:39.372Z,7.60
2023-04-16T11:40:43.982Z,7.30
2023-04-16T11:45:58.184Z,7.82
2023-04-16T11:51:03.398Z,7.30
2023-04-16T11:56:07.248Z,8.23
2023-04-16T12:01:11.642Z,12.02
2023-04-16T12:06:16.547Z,10.93
2023-04-16T12:11:20.051Z,10.07
2023-04-16T12:16:23.785Z,10.65
2023-04-16T12:21:38.055Z,11.13
2023-04-16T12:26:43.598Z,11.80
2023-04-16T12:31:47.580Z,11.50
2023-04-16T12:37:09.568Z,10.75
2023-04-16T12:42:12.983Z,8.13
2023-04-16T12:47:16.684Z,10.88
2023-04-16T12:52:23.807Z,8.27
2023-04-16T12:57:28.840Z,9.73
2023-04-16T13:02:32.584Z,6.57
2023-04-16T13:07:37.608Z,6.28
2023-04-16T13:12:41.111Z,7.88
2023-04-16T13:17:44.572Z,9.30
2023-04-16T13:22:49.362Z,6.63
2023-04-16T13:27:53.165Z,8.75
2023-04-16T13:32:57.059Z,6.18
2023-04-16T13:38:01.869Z,6.40
2023-04-16T13:43:07.622Z,9.70
2023-04-16T13:48:11.348Z,9.23
2023-04-16T13:53:16.413Z,9.35
2023-04-16T13:58:20.255Z,9.55
2023-04-16T14:03:23.826Z,8.98
2023-04-16T14:08:28.901Z,8.20
2023-04-16T14:13:32.510Z,7.97
2023-04-16T14:18:35.986Z,8.25
2023-04-16T14:23:41.207Z,6.78
2023-04-16T14:28:44.577Z,10.77
2023-04-16T14:33:48.017Z,13.65
2023-04-16T14:38:52.921Z,16.08
2023-04-16T14:43:56.359Z,12.50
2023-04-16T14:48:59.867Z,10.53
2023-04-16T14:54:04.837Z,13.60
2023-04-16T14:59:08.444Z,12.67
2023-04-16T15:04:12.448Z,19.52
2023-04-16T15:09:17.694Z,14.43
2023-04-16T15:14:21.185Z,17.33
2023-04-16T15:19:24.691Z,15.63
2023-04-16T15:24:29.629Z,15.93
2023-04-16T15:29:33.133Z,15.83
2023-04-16T15:34:36.671Z,17.77
2023-04-16T15:39:41.512Z,18.17
2023-04-16T15:44:45.011Z,18.97
2023-04-16T15:49:48.803Z,13.90
2023-04-16T15:54:53.840Z,19.00
2023-04-16T16:00:06.456Z,17.77
2023-04-16T16:05:11.993Z,14.37
2023-04-16T16:10:17.262Z,18.47
2023-04-16T16:15:21.699Z,16.33
2023-04-16T16:20:25.721Z,22.63
2023-04-16T16:25:30.575Z,16.80
2023-04-16T16:30:34.060Z,14.03
2023-04-16T16:35:37.477Z,19.70
2023-04-16T16:40:42.619Z,17.13
2023-04-16T16:45:46.595Z,14.83
2023-04-16T16:50:50.083Z,16.93
2023-04-16T16:55:55.394Z,16.60
2023-04-16T17:00:58.861Z,19.47
2023-04-16T17:06:02.593Z,19.43
2023-04-16T17:11:07.759Z,17.10
2023-04-16T17:16:11.459Z,22.97
2023-04-16T17:21:16.496Z,17.77
2023-04-16T17:26:22.511Z,21.40
2023-04-16T17:31:27.414Z,18.03
2023-04-16T17:36:31.472Z,17.30
2023-04-16T17:41:36.369Z,23.80
2023-04-16T17:46:39.788Z,24.87
2023-04-16T17:51:44.667Z,26.40
2023-04-16T17:56:49.888Z,25.33
2023-04-16T18:01:53.465Z,23.83
2023-04-16T18:06:57.203Z,28.93
2023-04-16T18:12:03.018Z,21.27
2023-04-16T18:17:06.831Z,29.13
2023-04-16T18:22:11.067Z,22.17
2023-04-16T18:27:15.838Z,27.53
2023-04-16T18:32:19.736Z,31.00
2023-04-16T18:37:23.693Z,25.23
2023-04-16T18:42:29.444Z,23.67
2023-04-16T18:47:34.734Z,21.13
2023-04-16T18:52:38.457Z,22.13
2023-04-16T18:57:44.003Z,20.13
2023-04-16T19:02:47.822Z,21.27
2023-04-16T19:07:51.772Z,25.53
2023-04-16T19:12:58.034Z,27.43
2023-04-16T19:18:02.141Z,23.33
2023-04-16T19:23:08.954Z,23.13
2023-04-16T19:28:14.916Z,26.40
2023-04-16T19:33:18.446Z,26.70
2023-04-16T19:38:22.109Z,24.43
2023-04-16T19:43:28.415Z,30.93
2023-04-16T19:48:33.825Z,27.67
2023-04-16T19:53:37.538Z,31.47
2023-04-16T19:58:42.335Z,32.27
2023-04-16T20:03:46.299Z,26.70
2023-04-16T20:08:49.867Z,27.23
2023-04-16T20:13:54.719Z,23.50
2023-04-16T20:19:03.623Z,31.33
2023-04-16T20:24:10.679Z,27.30
2023-04-16T20:29:15.826Z,23.33
2023-04-16T20:34:19.632Z,26.97
2023-04-16T20:39:23.296Z,30.23
2023-04-16T20:44:33.427Z,48.73
2023-04-16T20:49:38.399Z,28.17
2023-04-16T20:54:42.240Z,24.33
2023-04-16T20:59:47.206Z,31.23
2023-04-16T21:04:50.915Z,51.20
2023-04-16T21:09:54.512Z,22.07
2023-04-16T21:14:59.878Z,24.97
2023-04-16T21:20:03.741Z,27.37
2023-04-16T21:25:08.268Z,33.40
2023-04-16T21:30:14.883Z,27.20
2023-04-16T21:35:18.856Z,39.17
2023-04-16T21:40:23.944Z,40.17
2023-04-16T21:45:30.463Z,20.23
2023-04-16T21:50:34.065Z,38.07
2023-04-16T21:55:37.906Z,31.57
2023-04-16T22:00:42.790Z,42.03
2023-04-16T22:05:46.376Z,35.07
2023-04-16T22:10:50.281Z,24.63
2023-04-16T22:15:57.823Z,16.67
2023-04-16T22:21:01.662Z,30.83
2023-04-16T22:26:05.124Z,34.07
2023-04-16T22:31:10.324Z,19.93
2023-04-16T22:36:14.065Z,27.07
2023-04-16T22:41:17.851Z,22.90
2023-04-16T22:46:24.804Z,33.27
2023-04-16T22:51:29.057Z,26.83
2023-04-16T22:56:32.625Z,32.23
2023-04-16T23:01:37.587Z,28.37
2023-04-16T23:06:42.159Z,34.67
2023-04-16T23:11:45.873Z,26.93
2023-04-16T23:16:50.690Z,31.67
2023-04-16T23:21:54.392Z,81.47
2023-04-16T23:26:58.040Z,39.80
2023-04-16T23:32:03.185Z,48.37
2023-04-16T23:37:06.732Z,56.37
2023-04-16T23:42:10.231Z,29.90
2023-04-16T23:47:15.113Z,29.90
2023-04-16T23:52:18.579Z,35.60
2023-04-16T23:57:22.064Z,35.13
